createdAt,value
2022-11-09T00:00:33.627Z,3.67
2022-11-09T00:01:37.396Z,3.35
2022-11-09T00:02:43.880Z,3.30
2022-11-09T00:03:47.767Z,3.05
2022-11-09T00:04:50.329Z,2.90
2022-11-09T00:05:57.359Z,3.05
2022-11-09T00:06:59.641Z,3.22
2022-11-09T00:08:03.349Z,3.35
2022-11-09T00:09:09.783Z,2.75
2022-11-09T00:10:13.179Z,3.88
2022-11-09T00:11:15.546Z,3.30
2022-11-09T00:12:19.040Z,2.80
2022-11-09T00:13:22.135Z,3.00
2022-11-09T00:14:25.839Z,3.30
2022-11-09T00:15:28.488Z,3.45
2022-11-09T00:16:31.829Z,2.90
2022-11-09T00:17:34.157Z,3.45
2022-11-09T00:18:38.288Z,2.40
2022-11-09T00:19:40.533Z,2.70
2022-11-09T00:20:47.666Z,2.83
2022-11-09T00:21:50.871Z,3.13
2022-11-09T00:22:54.281Z,3.10
2022-11-09T00:23:57.765Z,3.10
2022-11-09T00:25:02.649Z,5.03
2022-11-09T00:26:06.840Z,4.57
2022-11-09T00:27:15.182Z,2.70
2022-11-09T00:28:19.857Z,3.30
2022-11-09T00:29:24.205Z,2.53
2022-11-09T00:30:27.643Z,2.67
2022-11-09T00:31:33.276Z,2.63
2022-11-09T00:32:35.652Z,2.42
2022-11-09T00:33:39.145Z,2.90
2022-11-09T00:34:41.605Z,2.50
2022-11-09T00:35:45.012Z,3.63
2022-11-09T00:36:47.436Z,4.00
2022-11-09T00:37:50.930Z,3.60
2022-11-09T00:38:55.060Z,3.20
2022-11-09T00:39:58.626Z,2.75
2022-11-09T00:41:05.392Z,2.70
2022-11-09T00:42:08.877Z,2.40
2022-11-09T00:43:11.440Z,2.60
2022-11-09T00:44:14.881Z,2.70
2022-11-09T00:45:17.466Z,2.00
2022-11-09T00:46:21.914Z,2.65
2022-11-09T00:47:26.609Z,2.40
2022-11-09T00:48:30.290Z,3.08
2022-11-09T00:49:34.232Z,2.97
2022-11-09T00:50:37.036Z,2.50
2022-11-09T00:51:40.744Z,3.35
2022-11-09T00:52:43.638Z,2.97
2022-11-09T00:53:48.510Z,2.50
2022-11-09T00:54:51.249Z,2.58
2022-11-09T00:55:56.037Z,2.35
2022-11-09T00:57:00.139Z,2.50
2022-11-09T00:58:03.840Z,2.28
2022-11-09T00:59:07.845Z,2.30
2022-11-09T01:00:11.495Z,2.72
2022-11-09T01:01:16.856Z,2.72
2022-11-09T01:02:19.409Z,2.30
2022-11-09T01:03:23.411Z,2.40
2022-11-09T01:04:25.895Z,2.67
2022-11-09T01:05:29.684Z,2.47
2022-11-09T01:06:33.900Z,2.03
2022-11-09T01:07:38.661Z,2.40
2022-11-09T01:08:41.038Z,2.10
2022-11-09T01:09:44.515Z,2.47
2022-11-09T01:10:48.917Z,2.00
2022-11-09T01:11:52.454Z,1.95
2022-11-09T01:12:59.277Z,2.20
2022-11-09T01:14:03.084Z,2.00
2022-11-09T01:15:20.355Z,2.10
2022-11-09T01:16:25.623Z,2.53
2022-11-09T01:17:28.483Z,1.95
2022-11-09T01:18:34.002Z,2.00
2022-11-09T01:19:36.420Z,2.00
2022-11-09T01:20:41.619Z,2.20
2022-11-09T01:21:44.198Z,1.90
2022-11-09T01:22:47.877Z,2.05
2022-11-09T01:23:50.347Z,1.98
2022-11-09T01:24:53.959Z,2.15
2022-11-09T01:26:00.531Z,2.10
2022-11-09T01:27:04.195Z,1.90
2022-11-09T01:28:09.333Z,1.73
2022-11-09T01:29:13.102Z,1.80
2022-11-09T01:30:15.936Z,1.98
2022-11-09T01:31:21.031Z,1.90
2022-11-09T01:32:23.443Z,1.85
2022-11-09T01:33:26.864Z,1.77
2022-11-09T01:34:30.457Z,1.90
2022-11-09T01:35:34.894Z,2.05
2022-11-09T01:36:37.398Z,1.35
2022-11-09T01:37:40.848Z,1.98
2022-11-09T01:38:45.509Z,2.10
2022-11-09T01:39:49.229Z,2.28
2022-11-09T01:40:51.818Z,2.00
2022-11-09T01:41:55.375Z,1.80
2022-11-09T01:42:58.079Z,2.00
2022-11-09T01:44:19.124Z,1.60
2022-11-09T01:45:27.535Z,1.65
2022-11-09T01:46:38.073Z,1.60
2022-11-09T01:47:41.492Z,2.05
2022-11-09T01:48:50.570Z,1.50
2022-11-09T01:50:00.416Z,1.70
2022-11-09T01:51:08.747Z,1.95
2022-11-09T01:52:14.893Z,1.50
2022-11-09T01:53:22.725Z,1.48
2022-11-09T01:54:41.014Z,1.60
2022-11-09T01:55:45.585Z,1.98
2022-11-09T01:56:53.735Z,1.60
2022-11-09T01:58:00.888Z,1.60
2022-11-09T01:59:09.482Z,1.70
2022-11-09T02:00:15.706Z,1.70
2022-11-09T02:01:20.459Z,1.50
2022-11-09T02:02:23.806Z,1.92
2022-11-09T02:03:30.975Z,1.60
2022-11-09T02:04:38.805Z,1.40
2022-11-09T02:05:43.923Z,1.88
2022-11-09T02:06:47.492Z,1.40
2022-11-09T02:07:51.491Z,1.92
2022-11-09T02:09:02.737Z,1.77
2022-11-09T02:10:10.517Z,1.70
2022-11-09T02:11:17.576Z,1.52
2022-11-09T02:12:22.363Z,1.88
2022-11-09T02:13:26.867Z,2.10
2022-11-09T02:14:35.792Z,1.92
2022-11-09T02:15:44.282Z,2.55
2022-11-09T02:16:49.353Z,1.75
2022-11-09T02:17:54.703Z,1.88
2022-11-09T02:19:00.959Z,1.88
2022-11-09T02:20:09.595Z,1.85
2022-11-09T02:21:13.338Z,1.45
2022-11-09T02:22:16.219Z,2.05
2022-11-09T02:23:21.555Z,1.60
2022-11-09T02:24:26.063Z,1.80
2022-11-09T02:25:30.051Z,1.70
2022-11-09T02:26:39.343Z,1.92
2022-11-09T02:27:45.632Z,1.98
2022-11-09T02:28:49.212Z,1.50
2022-11-09T02:31:14.109Z,2.00
2022-11-09T02:32:21.534Z,2.25
2022-11-09T02:33:26.907Z,1.50
2022-11-09T02:34:35.341Z,2.08
2022-11-09T02:35:41.200Z,1.80
2022-11-09T02:36:44.341Z,1.90
2022-11-09T02:37:54.000Z,1.80
2022-11-09T02:38:59.184Z,1.55
2022-11-09T02:40:10.013Z,1.55
2022-11-09T02:41:13.502Z,1.90
2022-11-09T02:42:21.695Z,1.60
2022-11-09T02:43:27.122Z,1.55
2022-11-09T02:44:38.073Z,2.00
2022-11-09T02:45:41.269Z,1.85
2022-11-09T02:46:45.227Z,1.70
2022-11-09T02:47:55.846Z,1.52
2022-11-09T02:49:07.182Z,2.00
2022-11-09T02:50:18.458Z,1.50
2022-11-09T02:51:40.593Z,1.63
2022-11-09T02:52:53.139Z,1.80
2022-11-09T02:54:10.170Z,1.75
2022-11-09T02:55:21.755Z,1.67
2022-11-09T02:56:44.975Z,1.70
2022-11-09T02:57:53.943Z,1.50
2022-11-09T02:59:07.703Z,1.77
2022-11-09T03:00:18.184Z,1.50
2022-11-09T03:01:33.549Z,1.85
2022-11-09T03:02:52.635Z,1.70
2022-11-09T03:04:12.237Z,1.30
2022-11-09T03:05:39.155Z,1.50
2022-11-09T03:06:59.282Z,1.35
2022-11-09T03:08:23.286Z,1.58
2022-11-09T03:09:37.775Z,1.40
2022-11-09T03:10:55.609Z,1.50
2022-11-09T03:12:25.866Z,1.25
2022-11-09T03:13:51.841Z,1.75
2022-11-09T03:15:03.258Z,1.70
2022-11-09T03:16:16.539Z,1.73
2022-11-09T03:17:32.711Z,1.50
2022-11-09T03:23:04.676Z,1.60
2022-11-09T03:24:15.128Z,1.90
2022-11-09T03:25:33.083Z,1.50
2022-11-09T03:26:50.077Z,1.30
2022-11-09T03:28:46.239Z,1.50
2022-11-09T03:29:57.161Z,1.60
2022-11-09T03:31:10.226Z,1.25
2022-11-09T03:32:27.945Z,1.80
2022-11-09T03:35:05.129Z,1.55
2022-11-09T03:36:13.626Z,1.50
2022-11-09T03:38:57.226Z,1.83
2022-11-09T03:40:13.405Z,1.48
2022-11-09T03:41:35.472Z,1.42
2022-11-09T03:42:57.935Z,1.70
2022-11-09T03:44:04.707Z,1.50
2022-11-09T03:45:19.882Z,1.38
2022-11-09T03:46:28.667Z,1.92
2022-11-09T03:47:45.201Z,1.70
2022-11-09T03:48:57.736Z,1.80
2022-11-09T03:50:10.544Z,1.23
2022-11-09T03:51:21.023Z,1.73
2022-11-09T03:52:32.217Z,1.40
2022-11-09T03:53:46.701Z,1.60
2022-11-09T03:54:55.935Z,1.30
2022-11-09T03:56:05.365Z,1.52
2022-11-09T03:57:34.593Z,1.35
2022-11-09T03:58:43.381Z,1.42
2022-11-09T03:59:52.173Z,1.90
2022-11-09T04:01:07.481Z,1.60
2022-11-09T04:02:26.013Z,1.40
2022-11-09T04:03:42.701Z,1.40
2022-11-09T04:05:01.456Z,1.50
2022-11-09T04:06:10.298Z,1.40
2022-11-09T04:07:22.184Z,1.35
2022-11-09T04:08:35.749Z,1.52
2022-11-09T04:09:45.721Z,1.60
2022-11-09T04:11:05.782Z,1.50
2022-11-09T04:12:14.571Z,1.25
2022-11-09T04:13:22.165Z,1.55
2022-11-09T04:14:27.192Z,1.65
2022-11-09T04:15:37.393Z,1.30
2022-11-09T04:16:49.688Z,1.60
2022-11-09T04:17:58.978Z,1.60
2022-11-09T04:19:10.152Z,1.42
2022-11-09T04:20:18.408Z,1.65
2022-11-09T04:21:27.145Z,1.50
2022-11-09T04:22:32.521Z,1.85
2022-11-09T04:23:53.810Z,1.55
2022-11-09T04:25:05.747Z,1.35
2022-11-09T04:26:18.671Z,1.40
2022-11-09T04:27:27.056Z,1.40
2022-11-09T04:28:38.870Z,1.98
2022-11-09T04:29:53.820Z,1.60
2022-11-09T04:31:07.114Z,1.60
2022-11-09T04:32:40.516Z,1.17
2022-11-09T04:34:02.389Z,1.42
2022-11-09T04:35:20.572Z,1.33
2022-11-09T04:36:47.031Z,1.50
2022-11-09T04:38:03.923Z,1.45
2022-11-09T04:39:22.249Z,1.58
2022-11-09T04:40:28.250Z,2.10
2022-11-09T04:41:49.041Z,1.90
2022-11-09T04:43:03.304Z,1.48
2022-11-09T04:44:14.314Z,1.50
2022-11-09T04:45:27.620Z,1.45
2022-11-09T04:46:41.072Z,2.00
2022-11-09T04:47:47.589Z,1.70
2022-11-09T04:49:05.976Z,1.50
2022-11-09T04:50:10.395Z,1.48
2022-11-09T04:51:26.982Z,1.23
2022-11-09T04:52:33.549Z,1.35
2022-11-09T04:53:49.223Z,2.30
2022-11-09T04:54:58.550Z,1.60
2022-11-09T04:56:07.035Z,1.50
2022-11-09T04:57:11.261Z,1.50
2022-11-09T04:58:29.295Z,1.40
2022-11-09T04:59:39.049Z,1.30
2022-11-09T05:00:41.625Z,1.42
2022-11-09T05:01:44.912Z,1.60
2022-11-09T05:02:47.262Z,1.40
2022-11-09T05:03:50.731Z,1.80
2022-11-09T05:04:52.999Z,1.80
2022-11-09T05:05:56.428Z,1.20
2022-11-09T05:06:58.979Z,1.60
2022-11-09T05:08:02.758Z,1.90
2022-11-09T05:09:07.555Z,1.23
2022-11-09T05:10:11.232Z,1.65
2022-11-09T05:11:14.721Z,1.35
2022-11-09T05:12:19.665Z,2.13
2022-11-09T05:13:22.389Z,1.67
2022-11-09T05:14:26.009Z,1.73
2022-11-09T05:15:28.856Z,1.30
2022-11-09T05:16:32.590Z,1.90
2022-11-09T05:17:35.054Z,1.60
2022-11-09T05:18:38.488Z,1.17
2022-11-09T05:19:40.786Z,1.35
2022-11-09T05:20:44.334Z,1.25
2022-11-09T05:21:46.818Z,1.42
2022-11-09T05:23:07.780Z,1.38
2022-11-09T05:24:11.958Z,1.38
2022-11-09T05:25:14.326Z,1.45
2022-11-09T05:26:17.777Z,1.42
2022-11-09T05:27:21.799Z,1.52
2022-11-09T05:28:25.277Z,1.40
2022-11-09T05:29:27.955Z,1.00
2022-11-09T05:30:31.461Z,1.10
2022-11-09T05:31:34.261Z,1.13
2022-11-09T05:32:39.971Z,1.55
2022-11-09T05:33:42.578Z,1.17
2022-11-09T05:34:46.090Z,1.90
2022-11-09T05:35:48.761Z,1.50
2022-11-09T05:36:52.556Z,1.30
2022-11-09T05:37:55.009Z,1.83
2022-11-09T05:38:59.908Z,1.38
2022-11-09T05:40:02.282Z,1.63
2022-11-09T05:41:05.763Z,1.70
2022-11-09T05:42:10.329Z,1.73
2022-11-09T05:43:15.459Z,1.55
2022-11-09T05:44:17.727Z,1.60
2022-11-09T05:45:41.499Z,1.50
2022-11-09T05:46:44.948Z,1.42
2022-11-09T05:47:47.526Z,1.73
2022-11-09T05:48:55.785Z,1.52
2022-11-09T05:49:58.761Z,1.83
2022-11-09T05:51:03.843Z,1.58
2022-11-09T05:52:06.327Z,1.35
2022-11-09T05:53:10.688Z,1.50
2022-11-09T05:54:14.748Z,1.42
2022-11-09T05:55:17.603Z,1.70
2022-11-09T05:56:21.316Z,1.58
2022-11-09T05:57:23.978Z,1.85
2022-11-09T05:58:28.974Z,1.70
2022-11-09T05:59:31.588Z,1.80
2022-11-09T06:00:36.667Z,1.63
2022-11-09T06:01:40.163Z,2.25
2022-11-09T06:02:42.561Z,2.20
2022-11-09T06:03:46.221Z,2.13
2022-11-09T06:04:49.513Z,2.85
2022-11-09T06:05:53.076Z,2.40
2022-11-09T06:06:55.513Z,2.20
2022-11-09T06:08:04.456Z,2.63
2022-11-09T06:09:06.889Z,2.63
2022-11-09T06:10:11.525Z,1.88
2022-11-09T06:11:19.924Z,1.90
2022-11-09T06:12:26.677Z,2.15
2022-11-09T06:13:31.138Z,2.25
2022-11-09T06:14:42.524Z,2.30
2022-11-09T06:15:45.380Z,2.20
2022-11-09T06:16:49.157Z,2.40
2022-11-09T06:17:52.584Z,2.50
2022-11-09T06:18:56.455Z,2.78
2022-11-09T06:19:59.114Z,2.55
2022-11-09T06:21:04.628Z,2.88
2022-11-09T06:22:07.143Z,4.53
2022-11-09T06:23:12.160Z,3.83
2022-11-09T06:24:16.287Z,4.07
2022-11-09T06:25:19.073Z,3.53
2022-11-09T06:26:22.758Z,2.70
2022-11-09T06:27:25.231Z,2.60
2022-11-09T06:28:29.259Z,2.70
2022-11-09T06:29:33.732Z,2.47
2022-11-09T06:30:37.410Z,2.30
2022-11-09T06:31:39.883Z,2.40
2022-11-09T06:32:43.714Z,2.47
2022-11-09T06:33:46.556Z,2.60
2022-11-09T06:34:50.574Z,2.58
2022-11-09T06:35:56.356Z,2.60
2022-11-09T06:37:00.373Z,2.55
2022-11-09T06:38:02.817Z,3.42
2022-11-09T06:39:08.784Z,2.20
2022-11-09T06:40:12.969Z,2.80
2022-11-09T06:41:16.585Z,3.25
2022-11-09T06:42:19.407Z,2.60
2022-11-09T06:43:23.670Z,2.45
2022-11-09T06:44:26.213Z,3.60
2022-11-09T06:45:32.471Z,4.25
2022-11-09T06:46:34.936Z,4.05
2022-11-09T06:47:38.793Z,3.08
2022-11-09T06:48:41.294Z,3.08
2022-11-09T06:49:45.220Z,3.65
2022-11-09T06:50:47.843Z,3.75
2022-11-09T06:51:51.401Z,3.33
2022-11-09T06:52:58.522Z,3.35
2022-11-09T06:54:03.076Z,3.00
2022-11-09T06:55:08.359Z,2.58
2022-11-09T06:56:12.555Z,2.90
2022-11-09T06:57:16.040Z,2.38
2022-11-09T06:58:21.028Z,2.17
2022-11-09T06:59:23.901Z,2.30
2022-11-09T07:00:34.889Z,2.50
2022-11-09T07:01:39.580Z,2.20
2022-11-09T07:02:43.778Z,2.58
2022-11-09T07:03:48.572Z,2.25
2022-11-09T07:04:54.507Z,3.45
2022-11-09T07:05:58.563Z,3.17
2022-11-09T07:07:02.810Z,3.92
2022-11-09T07:08:10.010Z,3.40
2022-11-09T07:09:14.267Z,3.08
2022-11-09T07:10:17.469Z,2.60
2022-11-09T07:11:21.588Z,2.55
2022-11-09T07:12:24.394Z,2.28
2022-11-09T07:13:28.387Z,2.35
2022-11-09T07:14:31.226Z,2.20
2022-11-09T07:15:46.473Z,3.17
2022-11-09T07:16:50.676Z,2.42
2022-11-09T07:17:58.255Z,2.40
2022-11-09T07:19:02.501Z,2.63
2022-11-09T07:20:06.036Z,2.28
2022-11-09T07:21:14.374Z,1.80
2022-11-09T07:22:17.469Z,1.80
2022-11-09T07:23:23.794Z,2.00
2022-11-09T07:26:37.052Z,1.85
2022-11-09T07:27:39.757Z,2.10
2022-11-09T07:28:43.732Z,1.90
2022-11-09T07:29:46.808Z,1.55
2022-11-09T07:30:53.636Z,1.70
2022-11-09T07:32:02.018Z,2.13
2022-11-09T07:33:10.248Z,2.35
2022-11-09T07:34:17.895Z,1.50
2022-11-09T07:35:25.585Z,1.60
2022-11-09T07:36:52.460Z,1.65
2022-11-09T07:37:55.968Z,2.00
2022-11-09T07:38:59.838Z,1.90
2022-11-09T07:40:02.414Z,1.60
2022-11-09T07:41:06.199Z,1.60
2022-11-09T07:42:08.595Z,1.50
2022-11-09T07:43:14.376Z,2.00
2022-11-09T07:44:19.859Z,1.58
2022-11-09T07:45:22.952Z,1.55
2022-11-09T07:46:28.117Z,2.10
2022-11-09T07:47:30.491Z,1.88
2022-11-09T07:48:34.057Z,1.80
2022-11-09T07:49:36.335Z,2.17
2022-11-09T07:50:40.996Z,1.65
2022-11-09T07:51:46.167Z,2.22
2022-11-09T07:52:48.591Z,1.92
2022-11-09T07:53:52.089Z,2.30
2022-11-09T07:54:55.646Z,2.80
2022-11-09T07:55:58.663Z,2.45
2022-11-09T07:57:02.737Z,2.58
2022-11-09T07:58:07.359Z,2.65
2022-11-09T08:01:15.779Z,2.30
2022-11-09T08:03:04.829Z,2.20
2022-11-09T08:04:13.154Z,1.60
2022-11-09T08:05:17.097Z,2.00
2022-11-09T08:06:24.602Z,2.50
2022-11-09T08:07:28.556Z,1.83
2022-11-09T08:08:34.164Z,2.03
2022-11-09T08:09:40.519Z,1.90
2022-11-09T08:10:51.673Z,2.20
2022-11-09T08:11:56.076Z,1.58
2022-11-09T08:13:00.613Z,1.63
2022-11-09T08:14:04.457Z,2.20
2022-11-09T08:15:08.043Z,1.50
2022-11-09T08:16:11.812Z,1.50
2022-11-09T08:17:15.084Z,1.92
2022-11-09T08:18:20.954Z,1.95
2022-11-09T08:19:48.757Z,2.70
2022-11-09T08:20:54.098Z,1.65
2022-11-09T08:21:58.145Z,1.90
2022-11-09T08:23:05.311Z,1.83
2022-11-09T08:24:16.429Z,2.15
2022-11-09T08:25:19.198Z,1.88
2022-11-09T08:26:26.922Z,1.70
2022-11-09T08:27:33.055Z,1.70
2022-11-09T08:28:40.421Z,1.60
2022-11-09T08:29:44.874Z,1.95
2022-11-09T08:30:57.061Z,1.80
2022-11-09T08:32:03.983Z,2.35
2022-11-09T08:33:07.496Z,1.70
2022-11-09T08:34:14.860Z,1.50
2022-11-09T08:36:42.871Z,1.92
2022-11-09T08:37:48.371Z,1.63
2022-11-09T08:38:56.363Z,2.00
2022-11-09T08:40:02.725Z,1.65
2022-11-09T08:41:13.275Z,1.30
2022-11-09T08:42:18.813Z,1.63
2022-11-09T08:43:25.499Z,1.70
2022-11-09T08:44:29.975Z,1.50
2022-11-09T08:45:38.520Z,1.30
2022-11-09T08:46:45.308Z,1.70
2022-11-09T08:47:49.606Z,1.75
2022-11-09T08:48:53.614Z,1.50
2022-11-09T08:49:57.241Z,1.55
2022-11-09T08:51:05.062Z,1.40
2022-11-09T08:52:10.663Z,2.13
2022-11-09T08:53:14.522Z,2.30
2022-11-09T08:54:18.243Z,1.42
2022-11-09T08:55:20.662Z,1.85
2022-11-09T08:56:24.731Z,1.85
2022-11-09T08:57:27.033Z,2.08
2022-11-09T08:58:30.675Z,1.90
2022-11-09T08:59:33.155Z,2.05
2022-11-09T09:00:36.518Z,1.92
2022-11-09T09:01:39.281Z,1.90
2022-11-09T09:02:45.045Z,2.20
2022-11-09T09:03:49.059Z,2.78
2022-11-09T09:04:53.796Z,2.00
2022-11-09T09:05:57.621Z,2.47
2022-11-09T09:07:00.406Z,2.15
2022-11-09T09:08:11.675Z,2.00
2022-11-09T09:09:14.068Z,1.80
2022-11-09T09:10:18.390Z,1.83
2022-11-09T09:11:21.828Z,1.77
2022-11-09T09:12:30.266Z,2.00
2022-11-09T09:13:40.544Z,2.90
2022-11-09T09:14:49.426Z,3.28
2022-11-09T09:15:55.483Z,3.35
2022-11-09T09:16:57.935Z,3.45
2022-11-09T09:18:02.347Z,3.40
2022-11-09T09:19:09.164Z,2.80
2022-11-09T09:20:13.862Z,2.88
2022-11-09T09:21:16.391Z,2.33
2022-11-09T09:22:20.346Z,2.15
2022-11-09T09:23:25.626Z,2.40
2022-11-09T09:24:31.143Z,1.90
2022-11-09T09:25:40.308Z,2.13
2022-11-09T09:26:45.472Z,1.70
2022-11-09T09:27:49.116Z,1.80
2022-11-09T09:28:54.225Z,1.58
2022-11-09T09:29:58.823Z,1.85
2022-11-09T09:31:04.913Z,1.50
2022-11-09T09:32:09.448Z,1.90
2022-11-09T09:33:13.158Z,1.73
2022-11-09T09:34:16.027Z,1.65
2022-11-09T09:35:19.418Z,1.83
2022-11-09T09:36:26.069Z,1.80
2022-11-09T09:37:29.845Z,1.98
2022-11-09T09:38:36.187Z,2.00
2022-11-09T09:39:39.977Z,2.05
2022-11-09T09:41:00.428Z,1.90
2022-11-09T09:42:07.859Z,1.60
2022-11-09T09:43:19.188Z,1.40
2022-11-09T09:44:29.623Z,1.92
2022-11-09T09:45:37.115Z,1.50
2022-11-09T09:46:47.209Z,2.30
2022-11-09T09:47:57.299Z,2.05
2022-11-09T09:49:06.143Z,1.80
2022-11-09T09:50:16.305Z,1.58
2022-11-09T09:51:26.880Z,1.60
2022-11-09T09:52:42.022Z,1.85
2022-11-09T09:53:53.952Z,1.60
2022-11-09T09:55:04.736Z,1.70
2022-11-09T09:56:23.121Z,1.58
2022-11-09T09:57:28.663Z,1.60
2022-11-09T09:58:35.487Z,1.63
2022-11-09T09:59:43.004Z,1.90
2022-11-09T10:00:47.177Z,1.70
2022-11-09T10:01:53.836Z,1.52
2022-11-09T10:02:58.045Z,1.92
2022-11-09T10:04:04.411Z,1.55
2022-11-09T10:05:09.682Z,1.90
2022-11-09T10:06:40.458Z,1.67
2022-11-09T10:07:52.253Z,1.42
2022-11-09T10:09:12.686Z,1.83
2022-11-09T10:10:45.210Z,1.45
2022-11-09T10:12:03.398Z,1.60
2022-11-09T10:13:44.979Z,1.80
2022-11-09T10:15:11.555Z,1.50
2022-11-09T10:16:23.525Z,1.40
2022-11-09T10:17:39.760Z,1.33
2022-11-09T10:18:56.915Z,1.98
2022-11-09T10:20:11.826Z,1.50
2022-11-09T10:21:37.825Z,1.40
2022-11-09T10:22:58.197Z,1.60
2022-11-09T10:24:16.078Z,1.60
2022-11-09T10:25:43.282Z,1.42
2022-11-09T10:26:51.345Z,1.50
2022-11-09T10:27:57.523Z,1.45
2022-11-09T10:29:15.969Z,1.30
2022-11-09T10:30:22.560Z,1.50
2022-11-09T10:31:44.486Z,1.20
2022-11-09T10:32:52.739Z,1.30
2022-11-09T10:34:04.491Z,1.70
2022-11-09T10:35:18.573Z,1.45
2022-11-09T10:36:29.031Z,1.42
2022-11-09T10:37:42.168Z,1.63
2022-11-09T10:38:54.491Z,1.20
2022-11-09T10:40:25.640Z,1.48
2022-11-09T10:41:48.060Z,1.60
2022-11-09T10:43:16.060Z,1.45
2022-11-09T10:44:40.958Z,1.55
2022-11-09T10:46:07.537Z,1.55
2022-11-09T10:47:30.094Z,1.40
2022-11-09T10:48:56.297Z,1.50
2022-11-09T10:50:33.956Z,1.52
2022-11-09T10:51:58.790Z,1.20
2022-11-09T10:53:23.235Z,1.67
2022-11-09T10:54:48.214Z,1.80
2022-11-09T10:56:20.790Z,1.65
2022-11-09T10:57:54.372Z,1.50
2022-11-09T10:59:39.434Z,1.55
2022-11-09T11:01:13.002Z,1.63
2022-11-09T11:02:50.492Z,1.60
2022-11-09T11:04:28.144Z,1.55
2022-11-09T11:05:59.021Z,1.13
2022-11-09T11:07:22.904Z,1.35
2022-11-09T11:08:46.964Z,1.48
2022-11-09T11:10:17.888Z,1.60
2022-11-09T11:11:41.957Z,1.77
2022-11-09T11:13:24.617Z,1.40
2022-11-09T11:14:48.011Z,1.25
2022-11-09T11:16:27.146Z,1.73
2022-11-09T11:17:49.893Z,1.42
2022-11-09T11:19:28.398Z,1.50
2022-11-09T11:21:06.318Z,1.58
2022-11-09T11:22:28.812Z,1.50
2022-11-09T11:24:15.415Z,1.38
2022-11-09T11:25:55.421Z,1.20
2022-11-09T11:27:23.925Z,1.25
2022-11-09T11:28:56.955Z,1.50
2022-11-09T11:30:29.100Z,1.60
2022-11-09T11:31:54.445Z,1.55
2022-11-09T11:33:19.073Z,1.35
2022-11-09T11:36:35.493Z,1.30
2022-11-09T11:38:20.216Z,1.90
2022-11-09T11:39:51.861Z,1.35
2022-11-09T11:41:52.837Z,1.40
2022-11-09T11:43:34.527Z,1.58
2022-11-09T11:45:38.514Z,1.25
2022-11-09T11:47:00.077Z,1.25
2022-11-09T11:48:49.839Z,1.40
2022-11-09T11:50:32.779Z,1.50
2022-11-09T11:52:00.348Z,1.48
2022-11-09T11:53:33.673Z,1.25
2022-11-09T11:55:15.773Z,1.65
2022-11-09T11:56:43.317Z,1.30
2022-11-09T11:58:22.261Z,1.30
2022-11-09T12:00:00.768Z,1.88
2022-11-09T12:01:36.653Z,1.10
2022-11-09T12:03:19.934Z,1.23
2022-11-09T12:05:00.823Z,1.30
2022-11-09T12:06:44.277Z,1.42
2022-11-09T12:08:14.958Z,1.60
2022-11-09T12:09:49.749Z,1.50
2022-11-09T12:11:20.642Z,1.23
2022-11-09T12:12:49.305Z,1.60
2022-11-09T12:14:21.551Z,1.38
2022-11-09T12:15:55.181Z,1.30
2022-11-09T12:17:26.679Z,1.42
2022-11-09T12:18:59.714Z,1.38
2022-11-09T12:20:28.088Z,1.65
2022-11-09T12:22:00.814Z,1.20
2022-11-09T12:23:40.758Z,1.45
2022-11-09T12:25:14.270Z,1.15
2022-11-09T12:27:04.649Z,1.90
2022-11-09T12:28:52.872Z,1.50
2022-11-09T12:30:17.616Z,1.65
2022-11-09T12:31:54.946Z,1.30
2022-11-09T12:33:24.527Z,1.65
2022-11-09T12:34:56.985Z,2.72
2022-11-09T12:36:22.754Z,3.70
2022-11-09T12:37:51.163Z,1.65
2022-11-09T12:39:21.557Z,1.35
2022-11-09T12:40:48.386Z,1.50
2022-11-09T12:42:15.557Z,1.58
2022-11-09T12:43:47.116Z,2.00
2022-11-09T12:45:21.915Z,1.30
2022-11-09T12:46:50.565Z,1.30
2022-11-09T12:48:25.810Z,1.30
2022-11-09T12:49:48.572Z,1.40
2022-11-09T12:51:11.242Z,1.40
2022-11-09T12:52:33.475Z,1.70
2022-11-09T12:53:57.557Z,1.35
2022-11-09T12:55:24.059Z,1.15
2022-11-09T12:56:55.073Z,1.52
2022-11-09T12:58:25.198Z,1.45
2022-11-09T12:59:50.205Z,1.20
2022-11-09T13:01:14.475Z,1.20
2022-11-09T13:02:40.505Z,1.40
2022-11-09T13:04:08.528Z,1.35
2022-11-09T13:05:33.067Z,1.27
2022-11-09T13:07:19.074Z,1.33
2022-11-09T13:08:42.463Z,1.15
2022-11-09T13:10:05.237Z,1.30
2022-11-09T13:11:39.693Z,1.40
2022-11-09T13:13:18.196Z,1.20
2022-11-09T13:14:40.540Z,1.30
2022-11-09T13:16:10.504Z,1.40
2022-11-09T13:18:01.749Z,1.25
2022-11-09T13:19:51.058Z,1.50
2022-11-09T13:24:55.745Z,1.70
2022-11-09T13:26:25.774Z,1.27
2022-11-09T13:27:49.228Z,1.13
2022-11-09T13:29:23.451Z,1.40
2022-11-09T13:30:45.593Z,1.00
2022-11-09T13:32:31.773Z,1.00
2022-11-09T13:34:42.113Z,0.90
2022-11-09T13:36:20.315Z,1.15
2022-11-09T13:37:56.094Z,1.25
2022-11-09T13:39:32.057Z,1.10
2022-11-09T13:40:55.996Z,1.30
2022-11-09T13:42:28.836Z,1.23
2022-11-09T13:44:09.282Z,1.23
2022-11-09T13:45:35.140Z,1.50
2022-11-09T13:46:58.183Z,1.30
2022-11-09T13:48:43.981Z,1.60
2022-11-09T13:50:19.266Z,1.10
2022-11-09T13:51:46.124Z,1.45
2022-11-09T13:53:29.052Z,1.20
2022-11-09T13:54:55.697Z,1.50
2022-11-09T13:56:27.452Z,0.93
2022-11-09T13:57:50.212Z,1.35
2022-11-09T13:59:18.257Z,1.55
2022-11-09T14:00:45.940Z,0.98
2022-11-09T14:02:19.784Z,1.05
2022-11-09T14:03:41.961Z,1.15
2022-11-09T14:05:04.537Z,1.20
2022-11-09T14:06:29.903Z,1.20
2022-11-09T14:07:51.799Z,1.10
2022-11-09T14:09:18.883Z,1.13
2022-11-09T14:10:53.305Z,1.50
2022-11-09T14:12:33.194Z,1.20
2022-11-09T14:14:30.651Z,1.05
2022-11-09T14:15:58.284Z,1.00
2022-11-09T14:17:26.489Z,1.00
2022-11-09T14:18:57.364Z,1.25
2022-11-09T14:20:29.839Z,0.80
2022-11-09T14:21:54.234Z,1.25
2022-11-09T14:23:18.715Z,1.10
2022-11-09T14:24:41.852Z,2.08
2022-11-09T14:26:08.749Z,1.20
2022-11-09T14:27:30.704Z,1.30
2022-11-09T14:28:52.658Z,1.40
2022-11-09T14:30:20.021Z,1.27
2022-11-09T14:31:45.891Z,1.15
2022-11-09T14:33:26.597Z,1.60
2022-11-09T14:34:48.505Z,1.50
2022-11-09T14:36:14.211Z,1.20
2022-11-09T14:37:37.666Z,1.80
2022-11-09T14:39:02.516Z,1.58
2022-11-09T14:40:26.800Z,2.00
2022-11-09T14:41:49.121Z,1.35
2022-11-09T14:43:25.211Z,1.50
2022-11-09T14:44:48.253Z,1.40
2022-11-09T14:46:17.900Z,1.63
2022-11-09T14:47:40.198Z,1.77
2022-11-09T14:49:04.102Z,1.50
2022-11-09T14:50:28.281Z,1.75
2022-11-09T14:51:50.792Z,1.70
2022-11-09T14:53:22.399Z,2.10
2022-11-09T14:54:45.803Z,1.83
2022-11-09T14:56:10.941Z,2.35
2022-11-09T14:57:32.832Z,2.75
2022-11-09T14:58:55.584Z,1.90
2022-11-09T15:00:34.624Z,2.17
2022-11-09T15:02:02.070Z,1.70
2022-11-09T15:03:26.218Z,1.98
2022-11-09T15:04:55.963Z,2.53
2022-11-09T15:06:19.286Z,2.35
2022-11-09T15:07:41.150Z,3.80
2022-11-09T15:09:08.510Z,3.13
2022-11-09T15:10:32.782Z,3.83
2022-11-09T15:11:55.615Z,2.45
2022-11-09T15:13:18.183Z,2.85
2022-11-09T15:14:40.596Z,2.35
2022-11-09T15:16:03.655Z,3.47
2022-11-09T15:17:29.253Z,4.60
2022-11-09T15:18:51.984Z,4.32
2022-11-09T15:20:30.249Z,4.35
2022-11-09T15:21:52.894Z,3.20
2022-11-09T15:23:25.537Z,5.22
2022-11-09T15:24:49.461Z,5.93
2022-11-09T15:26:34.176Z,3.78
2022-11-09T15:28:19.859Z,3.85
2022-11-09T15:29:43.470Z,3.28
2022-11-09T15:31:16.380Z,2.70
2022-11-09T15:32:41.308Z,3.33
2022-11-09T15:34:21.267Z,2.67
2022-11-09T15:35:52.026Z,3.20
2022-11-09T15:37:29.322Z,3.40
2022-11-09T15:39:04.556Z,3.97
2022-11-09T15:40:31.610Z,4.45
2022-11-09T15:42:01.520Z,3.60
2022-11-09T15:43:32.141Z,2.72
2022-11-09T15:45:03.023Z,2.50
2022-11-09T15:46:49.494Z,2.40
2022-11-09T15:48:17.184Z,2.40
2022-11-09T15:49:39.405Z,2.95
2022-11-09T15:51:05.999Z,2.80
2022-11-09T15:52:34.461Z,3.17
2022-11-09T15:53:57.251Z,2.00
2022-11-09T15:55:30.564Z,2.40
2022-11-09T15:56:53.860Z,2.70
2022-11-09T15:58:29.250Z,1.95
2022-11-09T16:00:10.867Z,2.25
2022-11-09T16:01:43.914Z,2.10
2022-11-09T16:03:08.317Z,2.13
2022-11-09T16:04:39.229Z,2.28
2022-11-09T16:06:07.503Z,2.55
2022-11-09T16:07:32.651Z,3.38
2022-11-09T16:09:05.273Z,2.85
2022-11-09T16:10:31.193Z,3.05
2022-11-09T16:12:03.106Z,3.47
2022-11-09T16:13:31.651Z,3.08
2022-11-09T16:14:56.645Z,3.28
2022-11-09T16:16:12.490Z,3.70
2022-11-09T16:17:34.954Z,3.45
2022-11-09T16:19:00.257Z,3.22
2022-11-09T16:20:32.044Z,3.30
2022-11-09T16:23:15.977Z,3.00
2022-11-09T16:24:47.201Z,2.95
2022-11-09T16:26:11.030Z,3.25
2022-11-09T16:27:53.469Z,3.50
2022-11-09T16:31:14.950Z,2.92
2022-11-09T16:32:40.536Z,3.42
2022-11-09T16:34:09.621Z,3.05
2022-11-09T16:35:36.438Z,2.85
2022-11-09T16:37:04.874Z,3.53
2022-11-09T16:38:29.727Z,3.65
2022-11-09T16:40:00.735Z,3.80
2022-11-09T16:41:24.077Z,4.15
2022-11-09T16:42:55.413Z,3.65
2022-11-09T16:44:30.661Z,4.43
2022-11-09T16:45:54.906Z,5.95
2022-11-09T16:47:19.818Z,6.00
2022-11-09T16:48:45.017Z,5.88
2022-11-09T16:50:14.520Z,14.32
2022-11-09T16:51:42.154Z,21.77
2022-11-09T16:53:10.518Z,17.95
2022-11-09T16:54:43.471Z,10.50
2022-11-09T16:56:06.289Z,8.38